createdAt,value
2023-03-28T00:04:06.818Z,99315.59
2023-03-28T00:09:05.949Z,99300.91
2023-03-28T00:14:05.323Z,99315.03
2023-03-28T00:19:07.839Z,99305.34
2023-03-28T00:24:10.905Z,99355.53
2023-03-28T00:29:15.848Z,99349.75
2023-03-28T00:34:16.206Z,99361.78
2023-03-28T00:39:15.468Z,99364.34
2023-03-28T00:44:50.118Z,99365.25
2023-03-28T00:49:53.130Z,99406.25
2023-03-28T00:54:53.934Z,99362.84
2023-03-28T00:59:54.332Z,99364.88
2023-03-28T01:05:01.967Z,99367.25
2023-03-28T01:10:01.633Z,99352.84
2023-03-28T01:15:01.866Z,99369.19
2023-03-28T01:20:30.237Z,99380.66
2023-03-28T01:26:06.618Z,99357.28
2023-03-28T01:31:28.090Z,99389.38
2023-03-28T01:37:06.814Z,99388.72
2023-03-28T01:42:25.969Z,99419.78
2023-03-28T01:47:33.272Z,99386.25
2023-03-28T01:52:37.983Z,99406.72
2023-03-28T01:57:46.361Z,99390.13
2023-03-28T02:02:51.436Z,99412.69
2023-03-28T02:08:01.464Z,99431.09
2023-03-28T02:13:31.273Z,99448.00
2023-03-28T02:18:43.615Z,99442.44
2023-03-28T02:24:13.339Z,99447.88
2023-03-28T02:29:13.229Z,99450.03
2023-03-28T02:34:23.642Z,99466.00
2023-03-28T02:39:38.019Z,99449.06
2023-03-28T02:44:53.152Z,99476.44
2023-03-28T02:50:05.257Z,99511.66
2023-03-28T02:55:17.672Z,99553.44
2023-03-28T03:00:42.969Z,99517.22
2023-03-28T03:05:41.729Z,99502.34
2023-03-28T03:10:42.331Z,99519.50
2023-03-28T03:15:41.568Z,99526.31
2023-03-28T03:20:57.278Z,99534.13
2023-03-28T03:25:57.639Z,99528.06
2023-03-28T03:31:14.810Z,99581.91
2023-03-28T03:36:53.243Z,99557.38
2023-03-28T03:41:54.082Z,99555.13
2023-03-28T03:46:52.943Z,99577.22
2023-03-28T03:51:51.794Z,99563.78
2023-03-28T03:56:50.946Z,99590.81
2023-03-28T04:01:51.241Z,99632.75
2023-03-28T04:07:10.148Z,99600.66
2023-03-28T04:12:09.503Z,99602.09
2023-03-28T04:17:21.660Z,99640.94
2023-03-28T04:22:20.558Z,99621.28
2023-03-28T04:27:26.392Z,99626.88
2023-03-28T04:32:26.931Z,99652.09
2023-03-28T04:37:49.699Z,99683.19
2023-03-28T04:42:48.697Z,99671.88
2023-03-28T04:47:55.682Z,99671.38
2023-03-28T04:52:55.111Z,99697.44
2023-03-28T04:57:54.581Z,99708.28
2023-03-28T05:02:57.323Z,99708.28
2023-03-28T05:07:59.419Z,99722.88
2023-03-28T05:12:58.739Z,99711.41
2023-03-28T05:18:00.612Z,99713.56
2023-03-28T05:23:02.998Z,99737.56
2023-03-28T05:28:03.061Z,99752.19
2023-03-28T05:33:03.886Z,99772.69
2023-03-28T05:38:03.327Z,99767.09
2023-03-28T05:43:02.174Z,99737.66
2023-03-28T05:48:05.120Z,99737.50
2023-03-28T05:53:04.374Z,99775.31
2023-03-28T05:58:05.390Z,99757.59
2023-03-28T06:03:16.507Z,99778.28
2023-03-28T06:08:17.186Z,99811.56
2023-03-28T06:13:16.105Z,99809.94
2023-03-28T06:18:19.068Z,99797.31
2023-03-28T06:23:21.356Z,99792.38
2023-03-28T06:28:23.024Z,99821.63
2023-03-28T06:33:43.689Z,99847.22
2023-03-28T06:38:42.716Z,99844.44
2023-03-28T06:43:43.132Z,99879.78
2023-03-28T06:49:03.245Z,99901.13
2023-03-28T06:54:28.317Z,99869.69
2023-03-28T06:59:27.427Z,99898.50
2023-03-28T07:04:32.890Z,99932.06
2023-03-28T07:09:32.205Z,99940.19
2023-03-28T07:14:37.681Z,99940.38
2023-03-28T07:19:38.325Z,99927.28
2023-03-28T07:24:37.870Z,99934.47
2023-03-28T07:29:39.644Z,99957.97
2023-03-28T07:34:40.726Z,100007.97
2023-03-28T07:39:43.841Z,100001.88
2023-03-28T07:44:47.566Z,99941.41
2023-03-28T07:49:48.883Z,99909.28
2023-03-28T07:54:47.981Z,99966.25
2023-03-28T07:59:50.885Z,99962.94
2023-03-28T08:04:53.693Z,99962.25
2023-03-28T08:09:58.434Z,99994.31
2023-03-28T08:14:59.724Z,99965.38
2023-03-28T08:20:01.495Z,99949.88
2023-03-28T08:25:20.157Z,99976.41
2023-03-28T08:30:19.893Z,99976.28
2023-03-28T08:35:29.441Z,99969.56
2023-03-28T08:40:31.908Z,99963.78
2023-03-28T08:45:50.649Z,99981.28
2023-03-28T08:50:54.613Z,99977.97
2023-03-28T08:55:54.510Z,99984.41
2023-03-28T09:00:53.528Z,99986.50
2023-03-28T09:06:03.807Z,100003.03
2023-03-28T09:11:13.502Z,100000.66
2023-03-28T09:16:37.351Z,99998.06
2023-03-28T09:22:12.431Z,99988.56
2023-03-28T09:27:20.701Z,100032.91
2023-03-28T09:32:26.184Z,100003.97
2023-03-28T09:37:41.192Z,100013.47
2023-03-28T09:42:49.399Z,100028.19
2023-03-28T09:48:22.730Z,100021.56
2023-03-28T09:53:26.236Z,100028.16
2023-03-28T09:58:25.346Z,100039.97
2023-03-28T10:03:54.847Z,100027.13
2023-03-28T10:09:18.292Z,100037.50
2023-03-28T10:14:31.329Z,100072.34
2023-03-28T10:19:35.117Z,100066.38
2023-03-28T10:24:50.684Z,100058.59
2023-03-28T10:29:49.709Z,100078.41
2023-03-28T10:35:00.461Z,100089.34
2023-03-28T10:40:25.933Z,100101.34
2023-03-28T10:45:44.796Z,100121.47
2023-03-28T10:50:50.298Z,100107.22
2023-03-28T10:56:06.196Z,100122.22
2023-03-28T11:01:21.271Z,100143.41
2023-03-28T11:06:30.904Z,100161.84
2023-03-28T11:11:48.436Z,100132.78
2023-03-28T11:16:59.170Z,100142.66
2023-03-28T11:22:25.364Z,100128.53
2023-03-28T11:27:30.347Z,100140.22
2023-03-28T11:33:02.845Z,100128.72
2023-03-28T11:38:13.964Z,100136.97
2023-03-28T11:43:23.989Z,100158.22
2023-03-28T11:48:28.168Z,100146.53
2023-03-28T11:53:31.760Z,100130.63
2023-03-28T11:58:43.432Z,100144.75
2023-03-28T12:03:56.765Z,100148.75
2023-03-28T12:09:01.901Z,100162.22
2023-03-28T12:14:31.126Z,100159.44
2023-03-28T12:19:41.118Z,100173.47
2023-03-28T12:24:47.604Z,100161.91
2023-03-28T12:30:00.536Z,100167.72
2023-03-28T12:35:07.489Z,100179.41
2023-03-28T12:40:54.616Z,100169.69
2023-03-28T12:46:03.317Z,100162.97
2023-03-28T12:51:12.164Z,100157.41
2023-03-28T12:56:13.589Z,100185.34
2023-03-28T13:01:28.249Z,100187.25
2023-03-28T13:06:44.960Z,100184.88
2023-03-28T13:11:50.401Z,100184.25
2023-03-28T13:16:57.630Z,100185.50
2023-03-28T13:21:58.032Z,100201.91
2023-03-28T13:26:58.048Z,100215.28
2023-03-28T13:32:06.839Z,100221.69
2023-03-28T13:37:23.053Z,100218.03
2023-03-28T13:42:33.505Z,100211.38
2023-03-28T13:47:38.415Z,100206.72
2023-03-28T13:52:37.675Z,100221.47
2023-03-28T13:57:36.532Z,100225.03
2023-03-28T14:02:43.154Z,100241.78
2023-03-28T14:07:42.814Z,100251.38
2023-03-28T14:12:42.419Z,100269.59
2023-03-28T14:17:42.747Z,100256.25
2023-03-28T14:22:53.101Z,100259.19
2023-03-28T14:27:58.031Z,100266.84
2023-03-28T14:33:00.573Z,100272.91
2023-03-28T14:38:01.260Z,100284.25
2023-03-28T14:43:05.719Z,100291.56
2023-03-28T14:48:07.873Z,100301.53
2023-03-28T14:53:09.536Z,100312.94
2023-03-28T14:58:10.404Z,100325.09
2023-03-28T15:03:15.666Z,100331.97
2023-03-28T15:08:28.245Z,100338.06
2023-03-28T15:13:33.799Z,100344.28
2023-03-28T15:18:44.534Z,100355.34
2023-03-28T15:23:47.382Z,100367.84
2023-03-28T15:28:56.878Z,100374.88
2023-03-28T15:33:59.660Z,100389.91
2023-03-28T15:39:01.349Z,100407.09
2023-03-28T15:44:11.398Z,100435.06
2023-03-28T15:49:13.078Z,100436.09
2023-03-28T15:54:28.130Z,100457.56
2023-03-28T15:59:35.652Z,100465.00
2023-03-28T16:04:36.197Z,100482.31
2023-03-28T16:09:35.333Z,100504.06
2023-03-28T16:14:36.437Z,100508.84
2023-03-28T16:20:16.507Z,100519.09
2023-03-28T16:25:16.408Z,100535.25
2023-03-28T16:30:20.666Z,100565.75
2023-03-28T16:35:22.915Z,100583.47
2023-03-28T16:40:22.187Z,100588.84
2023-03-28T16:45:21.614Z,100598.34
2023-03-28T16:50:22.335Z,100611.16
2023-03-28T16:55:21.266Z,100616.94
2023-03-28T17:00:22.961Z,100629.53
2023-03-28T17:05:23.275Z,100636.16
2023-03-28T17:10:22.318Z,100651.25
2023-03-28T17:15:21.956Z,100677.47
2023-03-28T17:20:22.577Z,100691.53
2023-03-28T17:25:21.667Z,100694.59
2023-03-28T17:30:20.860Z,100697.38
2023-03-28T17:35:21.593Z,100724.16
2023-03-28T17:40:21.821Z,100746.19
2023-03-28T17:45:20.868Z,100748.53
2023-03-28T17:50:20.065Z,100763.16
2023-03-28T17:55:19.524Z,100785.34
2023-03-28T18:00:21.011Z,100802.16
2023-03-28T18:05:20.043Z,100796.59
2023-03-28T18:10:23.557Z,100799.91
2023-03-28T18:15:24.029Z,100794.63
2023-03-28T18:20:25.092Z,100797.16
2023-03-28T18:25:24.833Z,100799.66
2023-03-28T18:30:25.135Z,100806.16
2023-03-28T18:35:24.748Z,100808.75
2023-03-28T18:40:24.240Z,100809.31
2023-03-28T18:45:24.980Z,100830.41
2023-03-28T18:50:24.421Z,100846.41
2023-03-28T18:55:23.617Z,100871.44
2023-03-28T19:00:22.744Z,100888.31
2023-03-28T19:05:24.746Z,100894.94
2023-03-28T19:10:23.759Z,100901.22
2023-03-28T19:15:22.954Z,100899.94
2023-03-28T19:20:23.260Z,100903.63
2023-03-28T19:25:22.749Z,100915.00
2023-03-28T19:30:21.979Z,100928.03
2023-03-28T19:35:26.532Z,100917.84
2023-03-28T19:40:26.604Z,100916.69
2023-03-28T19:45:25.862Z,100918.00
2023-03-28T19:50:26.100Z,100933.69
2023-03-28T19:55:24.998Z,100933.91
2023-03-28T20:00:23.872Z,100949.97
2023-03-28T20:05:22.568Z,100967.72
2023-03-28T20:10:22.679Z,100975.06
2023-03-28T20:15:23.425Z,100975.91
2023-03-28T20:20:24.134Z,100988.50
2023-03-28T20:25:24.749Z,100984.56
2023-03-28T20:30:23.987Z,100999.81
2023-03-28T20:35:22.987Z,101002.63
2023-03-28T20:40:22.254Z,100997.56
2023-03-28T20:45:25.740Z,100999.78
2023-03-28T20:50:34.056Z,101012.44
2023-03-28T20:55:34.131Z,101010.72
2023-03-28T21:00:35.913Z,101016.19
2023-03-28T21:05:34.791Z,101027.59
2023-03-28T21:10:33.535Z,101033.78
2023-03-28T21:15:32.419Z,101036.13
2023-03-28T21:20:32.546Z,101025.03
2023-03-28T21:25:31.760Z,101025.72
2023-03-28T21:30:30.770Z,101029.38
2023-03-28T21:35:29.896Z,101027.66
2023-03-28T21:40:29.994Z,101051.94
2023-03-28T21:45:28.699Z,101047.81
2023-03-28T21:50:31.356Z,101062.59
2023-03-28T21:55:32.281Z,101068.53
2023-03-28T22:00:30.962Z,101083.16
2023-03-28T22:05:30.176Z,101089.34
2023-03-28T22:10:29.501Z,101081.78
2023-03-28T22:15:32.427Z,101090.75
2023-03-28T22:20:31.628Z,101111.94
2023-03-28T22:25:34.753Z,101105.06
2023-03-28T22:30:35.378Z,101117.28
2023-03-28T22:35:34.630Z,101119.91
2023-03-28T22:40:33.599Z,101132.19
2023-03-28T22:45:34.407Z,101130.34
2023-03-28T22:50:33.804Z,101128.03
2023-03-28T22:55:32.937Z,101123.88
2023-03-28T23:00:31.769Z,101136.00
2023-03-28T23:05:32.076Z,101135.09
2023-03-28T23:10:32.059Z,101124.97
2023-03-28T23:15:31.011Z,101133.81
2023-03-28T23:20:31.147Z,101139.00
2023-03-28T23:25:29.857Z,101136.28
2023-03-28T23:30:28.652Z,101137.34
2023-03-28T23:35:27.352Z,101148.50
2023-03-28T23:40:28.436Z,101144.63
2023-03-28T23:45:27.286Z,101144.50
2023-03-28T23:50:26.477Z,101141.13
2023-03-28T23:55:25.852Z,101136.81
